Time;durP1;ratioP1;P1;durP2;ratioP2;P2;SDS_P1;SDS_P2;PMS_P1;PMS_P2;Temp;Humidity;BMP_temperature;BMP_pressure;BME280_temperature;BME280_humidity;BME280_pressure;Samples;Min_cycle;Max_cycle;Signal;HPM_P1;HPM_P2
2022/01/22 00:00:13;;;;;;;0.77;0.60;;;8.30;99.90;;;;;;6184435;23;20238;-90
2022/01/22 00:02:39;;;;;;;6.33;1.13;;;8.30;99.90;;;;;;6210136;23;20201;-91
2022/01/22 00:05:08;;;;;;;1.30;0.93;;;8.30;99.90;;;;;;6185000;23;20647;-90
2022/01/22 00:07:34;;;;;;;8.67;1.63;;;8.20;99.90;;;;;;6209512;23;20589;-91
2022/01/22 00:10:06;;;;;;;0.73;0.73;;;8.20;99.90;;;;;;6187395;23;20162;-90
2022/01/22 00:15:10;;;;;;;0.20;0.20;;;8.20;99.90;;;;;;6211606;23;20530;-90
2022/01/22 00:17:36;;;;;;;3.17;0.63;;;8.20;99.90;;;;;;6212515;23;20507;-91
2022/01/22 00:20:03;;;;;;;0.40;0.30;;;8.20;99.90;;;;;;6186738;23;20259;-91
2022/01/22 00:22:32;;;;;;;0.20;0.20;;;8.20;99.90;;;;;;6187383;23;20223;-91
2022/01/22 00:25:00;;;;;;;0.43;0.43;;;8.30;99.90;;;;;;6164427;23;20227;-91
2022/01/22 00:27:27;;;;;;;0.63;0.63;;;8.30;99.90;;;;;;6212057;23;20651;-91
2022/01/22 00:29:53;;;;;;;0.10;0.10;;;8.30;99.90;;;;;;6212203;23;20198;-91
2022/01/22 00:32:18;;;;;;;0.20;0.20;;;8.30;99.90;;;;;;6162565;23;20194;-91
2022/01/22 00:34:44;;;;;;;0.20;0.20;;;8.30;99.90;;;;;;6187104;23;20681;-91
2022/01/22 00:37:11;;;;;;;0.10;0.10;;;8.30;99.90;;;;;;6187291;23;20245;-91
2022/01/22 00:39:37;;;;;;;0.10;0.10;;;8.30;99.90;;;;;;6212378;23;20189;-91
2022/01/22 00:42:11;;;;;;;0.10;0.10;;;8.20;99.90;;;;;;6186596;23;20198;-91
2022/01/22 00:44:37;;;;;;;10.83;0.73;;;8.30;99.90;;;;;;6211202;23;20530;-91
2022/01/22 00:47:03;;;;;;;0.70;0.70;;;8.30;99.90;;;;;;6185828;23;20201;-91
2022/01/22 00:49:30;;;;;;;0.10;0.10;;;8.30;99.90;;;;;;6211154;23;20690;-90
2022/01/22 00:51:56;;;;;;;0.30;0.30;;;8.30;99.90;;;;;;6212826;23;20150;-92
2022/01/22 00:54:22;;;;;;;0.30;0.30;;;8.30;99.90;;;;;;6185760;23;20198;-91
2022/01/22 00:56:48;;;;;;;0.43;0.43;;;8.20;99.90;;;;;;6185683;23;20221;-91
2022/01/22 00:59:14;;;;;;;0.10;0.10;;;8.20;99.90;;;;;;6210398;23;20198;-92
2022/01/22 01:01:40;;;;;;;2.57;0.20;;;8.10;99.90;;;;;;6210478;23;20285;-91
2022/01/22 01:04:09;;;;;;;0.10;0.10;;;8.20;99.90;;;;;;6211365;23;20317;-91
2022/01/22 01:06:36;;;;;;;0.27;0.27;;;8.20;99.90;;;;;;6187296;23;20685;-91
2022/01/22 01:09:05;;;;;;;0.10;0.10;;;8.20;99.90;;;;;;6185488;23;20189;-91
2022/01/22 01:11:33;;;;;;;0.30;0.30;;;8.20;99.90;;;;;;6209852;23;20205;-91
2022/01/22 01:14:02;;;;;;;3.27;0.47;;;8.20;99.90;;;;;;6186270;23;20281;-92
2022/01/22 01:33:02;;;;;;;0.20;0.20;;;8.00;99.90;;;;;;6210383;23;20695;-92
2022/01/22 01:35:30;;;;;;;0.27;0.27;;;8.10;99.90;;;;;;6187399;23;20243;-91
2022/01/22 01:37:58;;;;;;;0.10;0.10;;;8.10;99.90;;;;;;6210347;23;20201;-92
2022/01/22 01:40:26;;;;;;;0.30;0.30;;;8.10;99.90;;;;;;6185446;23;20634;-91
2022/01/22 01:45:17;;;;;;;0.60;0.60;;;8.10;99.90;;;;;;6211370;23;20198;-92
2022/01/22 01:47:47;;;;;;;0.10;0.10;;;8.10;99.90;;;;;;6160062;23;20201;-91
2022/01/22 01:50:13;;;;;;;0.50;0.50;;;8.10;99.90;;;;;;6161325;23;20292;-92
2022/01/22 01:52:45;;;;;;;0.10;0.10;;;7.90;99.90;;;;;;6209494;23;20198;-92
2022/01/22 01:55:19;;;;;;;0.10;0.10;;;7.90;99.90;;;;;;6163200;23;20576;-92
2022/01/22 01:57:45;;;;;;;0.10;0.10;;;8.00;99.90;;;;;;6163720;23;20470;-91
2022/01/22 02:00:13;;;;;;;0.33;0.33;;;8.00;99.90;;;;;;6184865;23;20206;-92
2022/01/22 02:02:40;;;;;;;0.27;0.27;;;8.00;99.90;;;;;;6209366;23;20194;-92
2022/01/22 02:05:08;;;;;;;0.83;0.40;;;8.00;99.90;;;;;;6160211;23;20206;-92
2022/01/22 02:07:38;;;;;;;2.27;0.43;;;8.00;99.90;;;;;;6184693;23;20425;-92
2022/01/22 02:10:07;;;;;;;0.10;0.10;;;8.00;99.90;;;;;;6162395;23;20169;-92
2022/01/22 02:23:51;;;;;;;0.10;0.10;;;8.00;99.90;;;;;;6188530;23;20190;-92
2022/01/22 02:26:09;;;;;;;0.10;0.10;;;8.00;99.90;;;;;;6185904;23;20304;-91
2022/01/22 02:28:36;;;;;;;0.10;0.10;;;8.00;99.90;;;;;;6209004;23;20200;-91
2022/01/22 02:31:21;;;;;;;0.10;0.10;;;8.00;99.90;;;;;;6185358;23;20926;-91
2022/01/22 02:34:15;;;;;;;0.10;0.10;;;8.00;99.90;;;;;;6208481;23;20694;-92
2022/01/22 02:39:20;;;;;;;0.10;0.10;;;7.90;99.90;;;;;;6208925;23;20193;-91
2022/01/22 02:41:50;;;;;;;0.10;0.10;;;7.90;99.90;;;;;;6162838;23;20284;-92
2022/01/22 02:44:32;;;;;;;0.10;0.10;;;7.90;99.90;;;;;;6208655;23;20201;-92
2022/01/22 02:46:59;;;;;;;0.30;0.30;;;7.90;99.90;;;;;;6165911;23;20650;-92
2022/01/22 02:49:25;;;;;;;0.10;0.10;;;8.00;99.90;;;;;;6183916;23;20189;-90
2022/01/22 02:51:50;;;;;;;0.20;0.20;;;8.00;99.90;;;;;;6159991;23;20167;-91
2022/01/22 02:54:16;;;;;;;0.20;0.20;;;8.00;99.90;;;;;;6159905;23;20197;-92
2022/01/22 02:56:42;;;;;;;0.50;0.50;;;8.00;99.90;;;;;;6159269;23;20703;-91
2022/01/22 02:59:08;;;;;;;0.20;0.20;;;8.00;99.90;;;;;;6158842;23;20220;-92
2022/01/22 03:01:35;;;;;;;0.20;0.20;;;7.90;99.90;;;;;;6183354;23;20276;-92
2022/01/22 03:04:00;;;;;;;1.80;0.37;;;7.90;99.90;;;;;;6209509;23;20630;-91
2022/01/22 03:06:26;;;;;;;0.10;0.10;;;7.90;99.90;;;;;;6158997;23;20212;-91
2022/01/22 03:08:52;;;;;;;0.20;0.20;;;7.80;99.90;;;;;;6158655;23;20229;-90
2022/01/22 03:11:25;;;;;;;1.17;1.13;;;7.80;99.90;;;;;;6158843;23;20198;-91
2022/01/22 03:16:56;;;;;;;0.30;0.30;;;7.70;99.90;;;;;;6170872;23;20235;-91
2022/01/22 03:22:14;;;;;;;0.50;0.50;;;7.80;99.90;;;;;;6187119;23;20146;-91
2022/01/22 03:27:26;;;;;;;0.10;0.10;;;7.80;99.90;;;;;;6187599;23;20647;-91
2022/01/22 03:29:52;;;;;;;0.73;0.73;;;7.90;99.90;;;;;;6159195;23;20205;-91
2022/01/22 03:32:19;;;;;;;5.67;0.60;;;7.90;99.90;;;;;;6183433;23;20201;-91
2022/01/22 03:34:58;;;;;;;0.17;0.17;;;7.80;99.90;;;;;;6183869;23;20201;-91
2022/01/22 03:37:25;;;;;;;0.30;0.30;;;7.80;99.90;;;;;;6187182;23;20154;-91
2022/01/22 03:39:52;;;;;;;0.20;0.20;;;7.90;99.90;;;;;;6209630;23;20984;-91
2022/01/22 03:42:18;;;;;;;0.57;0.50;;;7.90;99.90;;;;;;6159599;23;20251;-91
2022/01/22 03:44:44;;;;;;;0.10;0.10;;;7.90;99.90;;;;;;6158591;23;20276;-91
2022/01/22 03:47:09;;;;;;;0.20;0.20;;;7.90;99.90;;;;;;6158585;23;20217;-91
2022/01/22 03:49:35;;;;;;;0.10;0.10;;;7.90;99.90;;;;;;6159047;23;20197;-91
2022/01/22 03:52:01;;;;;;;0.20;0.20;;;8.00;99.90;;;;;;6209554;23;20584;-91
2022/01/22 03:54:27;;;;;;;1.07;0.13;;;7.90;99.90;;;;;;6158822;23;20213;-91
2022/01/22 03:56:53;;;;;;;0.13;0.13;;;8.00;99.90;;;;;;6158864;23;20247;-91
2022/01/22 03:59:19;;;;;;;0.30;0.30;;;8.00;99.90;;;;;;6159920;23;20244;-91
2022/01/22 04:04:25;;;;;;;0.40;0.40;;;8.00;99.90;;;;;;6208911;23;20156;-91
2022/01/22 04:07:26;;;;;;;0.63;0.57;;;8.00;99.90;;;;;;6186145;23;20143;-91
2022/01/22 04:09:45;;;;;;;0.10;0.10;;;8.00;99.90;;;;;;6190115;23;20293;-91
2022/01/22 04:12:18;;;;;;;0.17;0.17;;;8.10;99.90;;;;;;6160773;23;20202;-91
2022/01/22 04:14:54;;;;;;;0.10;0.10;;;8.10;99.90;;;;;;6185464;23;20198;-91
2022/01/22 04:25:31;;;;;;;0.20;0.20;;;8.00;99.90;;;;;;6209127;23;21207;-91
2022/01/22 04:27:57;;;;;;;0.93;0.33;;;8.00;99.90;;;;;;6185358;23;20651;-91
2022/01/22 04:30:25;;;;;;;0.10;0.10;;;8.00;99.90;;;;;;6208605;23;20197;-92
2022/01/22 04:32:51;;;;;;;0.20;0.20;;;8.00;99.90;;;;;;6208593;23;20202;-91
2022/01/22 04:35:19;;;;;;;0.43;0.23;;;8.00;99.90;;;;;;6184098;23;20729;-91
2022/01/22 04:37:46;;;;;;;0.10;0.10;;;8.00;99.90;;;;;;6159480;23;20198;-92
2022/01/22 04:40:12;;;;;;;0.50;0.50;;;8.00;99.90;;;;;;6208060;23;20265;-92
2022/01/22 04:42:40;;;;;;;0.20;0.20;;;7.90;99.90;;;;;;6209308;23;20963;-91
2022/01/22 04:55:44;;;;;;;0.47;0.47;;;7.90;99.90;;;;;;6208551;23;20281;-91
2022/01/22 04:58:11;;;;;;;0.27;0.27;;;7.90;99.90;;;;;;6160722;23;20158;-92
2022/01/22 05:00:38;;;;;;;0.30;0.30;;;7.90;99.90;;;;;;6185947;23;20768;-91
2022/01/22 05:03:05;;;;;;;0.23;0.23;;;7.90;99.90;;;;;;6210975;23;20276;-91
2022/01/22 05:05:31;;;;;;;0.80;0.33;;;7.90;99.90;;;;;;6210221;23;20280;-92
2022/01/22 05:07:57;;;;;;;0.13;0.13;;;7.90;99.90;;;;;;6185320;23;20206;-92
2022/01/22 05:10:24;;;;;;;0.10;0.10;;;7.90;99.90;;;;;;6185416;23;20165;-92
2022/01/22 05:12:52;;;;;;;0.30;0.30;;;7.90;99.90;;;;;;6210732;23;20154;-91
2022/01/22 05:15:20;;;;;;;0.20;0.20;;;7.80;99.90;;;;;;6210070;23;20202;-91
2022/01/22 05:17:47;;;;;;;1.33;1.20;;;7.80;99.90;;;;;;6209940;23;20232;-91
2022/01/22 05:20:20;;;;;;;0.20;0.20;;;7.70;99.90;;;;;;6209535;23;20208;-91
2022/01/22 05:25:21;;;;;;;0.10;0.10;;;7.70;99.90;;;;;;6209965;23;20227;-91
2022/01/22 05:38:27;;;;;;;0.20;0.20;;;7.70;99.90;;;;;;6210976;23;20201;-92
2022/01/22 05:40:53;;;;;;;0.20;0.20;;;7.70;99.90;;;;;;6159100;23;20269;-92
2022/01/22 05:43:19;;;;;;;0.20;0.20;;;7.70;99.90;;;;;;6159436;23;20193;-92
2022/01/22 05:45:45;;;;;;;0.20;0.20;;;7.70;99.90;;;;;;6209925;23;20162;-91
2022/01/22 05:48:10;;;;;;;0.20;0.20;;;7.70;99.90;;;;;;6184318;23;20193;-92
2022/01/22 05:50:51;;;;;;;1.13;0.50;;;7.70;99.90;;;;;;6159851;23;20217;-92
2022/01/22 06:01:10;;;;;;;0.20;0.20;;;7.60;99.90;;;;;;6211364;23;20180;-91
2022/01/22 06:03:36;;;;;;;0.40;0.40;;;7.60;99.90;;;;;;6184442;23;20241;-92
2022/01/22 06:06:02;;;;;;;0.10;0.10;;;7.60;99.90;;;;;;6158897;23;20228;-92
2022/01/22 06:08:34;;;;;;;0.20;0.20;;;7.60;99.90;;;;;;6184386;23;20194;-92
2022/01/22 06:11:07;;;;;;;0.10;0.10;;;7.70;99.90;;;;;;6209105;23;20198;-92
2022/01/22 06:13:43;;;;;;;0.10;0.10;;;7.60;99.90;;;;;;6209297;23;20245;-92
2022/01/22 06:16:11;;;;;;;0.10;0.10;;;7.60;99.90;;;;;;6187017;23;20200;-90
2022/01/22 06:18:36;;;;;;;0.77;0.30;;;7.70;99.90;;;;;;6159841;23;20359;-92
2022/01/22 06:21:04;;;;;;;0.03;0.03;;;7.70;99.90;;;;;;6184168;23;20221;-92
2022/01/22 06:23:30;;;;;;;0.30;0.30;;;7.70;99.90;;;;;;6183609;23;20823;-92
2022/01/22 06:26:00;;;;;;;0.20;0.20;;;7.80;99.90;;;;;;6159473;23;20252;-93
2022/01/22 06:28:26;;;;;;;0.70;0.70;;;7.80;99.90;;;;;;6161842;23;20177;-91
2022/01/22 06:30:52;;;;;;;0.20;0.20;;;7.80;99.90;;;;;;6160578;23;20232;-91
2022/01/22 06:33:18;;;;;;;0.23;0.23;;;7.90;99.90;;;;;;6184409;23;20210;-92
2022/01/22 06:35:44;;;;;;;0.30;0.30;;;7.90;99.90;;;;;;6184160;23;20247;-94
2022/01/22 06:38:10;;;;;;;0.30;0.30;;;7.90;99.90;;;;;;6209288;23;20197;-93
2022/01/22 06:43:03;;;;;;;5.50;1.23;;;7.90;99.90;;;;;;6209909;23;20257;-94
2022/01/22 06:45:28;;;;;;;0.17;0.17;;;7.90;99.90;;;;;;6159613;23;20224;-92
2022/01/22 06:47:57;;;;;;;0.20;0.20;;;7.90;99.90;;;;;;6180993;23;20574;-93
2022/01/22 06:50:23;;;;;;;0.60;0.27;;;8.00;99.90;;;;;;6183733;23;20228;-93
2022/01/22 06:52:57;;;;;;;10.73;0.80;;;8.00;99.90;;;;;;6208106;23;20197;-91
2022/01/22 06:55:40;;;;;;;0.43;0.43;;;8.00;99.90;;;;;;6185542;23;20193;-89
2022/01/22 06:58:12;;;;;;;0.83;0.83;;;8.00;99.90;;;;;;6209751;23;20522;-94
2022/01/22 07:00:38;;;;;;;7.33;0.77;;;8.00;99.90;;;;;;6184821;23;20194;-92
2022/01/22 07:03:04;;;;;;;0.50;0.50;;;8.00;99.90;;;;;;6198755;23;20590;-90
2022/01/22 07:05:30;;;;;;;0.53;0.53;;;8.00;99.90;;;;;;6183537;23;20194;-90
2022/01/22 07:07:56;;;;;;;0.30;0.30;;;8.00;99.90;;;;;;6183475;23;20526;-93
2022/01/22 07:10:22;;;;;;;0.40;0.40;;;8.00;99.90;;;;;;6158422;23;20181;-91
2022/01/22 07:12:48;;;;;;;0.40;0.40;;;8.00;99.90;;;;;;6183470;23;20165;-92
2022/01/22 07:15:14;;;;;;;0.63;0.63;;;8.00;99.90;;;;;;6157819;23;20260;-91
2022/01/22 07:17:40;;;;;;;2.83;0.50;;;8.00;99.90;;;;;;6158376;23;20201;-93
2022/01/22 07:20:15;;;;;;;0.20;0.20;;;7.90;99.90;;;;;;6167227;23;20645;-92
2022/01/22 07:22:51;;;;;;;0.30;0.30;;;8.00;99.90;;;;;;6161589;23;20189;-92
2022/01/22 07:25:18;;;;;;;0.40;0.40;;;8.00;99.90;;;;;;6184484;23;20146;-93
2022/01/22 07:27:45;;;;;;;2.63;1.13;;;8.00;99.90;;;;;;6208721;23;20150;-94
2022/01/22 07:30:11;;;;;;;0.20;0.20;;;8.00;99.90;;;;;;6207366;23;20197;-92
2022/01/22 07:32:41;;;;;;;4.13;0.50;;;8.00;99.90;;;;;;6208128;23;20363;-92
2022/01/22 07:35:07;;;;;;;1.70;0.60;;;8.00;99.90;;;;;;6159413;23;20206;-89
2022/01/22 07:37:35;;;;;;;0.10;0.10;;;8.00;99.90;;;;;;6183403;23;20200;-91
2022/01/22 07:40:02;;;;;;;0.53;0.53;;;8.00;99.90;;;;;;6209342;23;20570;-90
2022/01/22 07:42:28;;;;;;;0.50;0.50;;;8.00;99.90;;;;;;6207546;23;20507;-92
2022/01/22 07:44:56;;;;;;;0.20;0.20;;;8.00;99.90;;;;;;6157256;23;20208;-90
2022/01/22 07:47:22;;;;;;;2.10;0.47;;;8.10;99.90;;;;;;6182143;23;21022;-90
2022/01/22 07:49:48;;;;;;;1.40;0.40;;;8.00;99.90;;;;;;6157418;23;20298;-91
2022/01/22 07:52:13;;;;;;;0.20;0.20;;;8.10;99.90;;;;;;6157976;23;20477;-91
2022/01/22 07:54:39;;;;;;;0.20;0.20;;;8.10;99.90;;;;;;6158752;23;20947;-92
2022/01/22 07:57:05;;;;;;;3.03;0.53;;;8.10;99.90;;;;;;6157900;23;20220;-92
2022/01/22 07:59:33;;;;;;;1.03;0.40;;;8.10;99.90;;;;;;6158095;23;20197;-91
2022/01/22 08:02:00;;;;;;;0.10;0.10;;;8.20;99.90;;;;;;6158630;23;20581;-91
2022/01/22 08:04:26;;;;;;;1.77;0.73;;;8.10;99.90;;;;;;6183008;23;20352;-90
2022/01/22 08:06:53;;;;;;;1.87;1.27;;;8.20;99.90;;;;;;6183583;23;20158;-91
2022/01/22 08:09:20;;;;;;;2.80;0.83;;;8.20;99.90;;;;;;6207550;23;20700;-91
2022/01/22 08:11:46;;;;;;;0.20;0.20;;;8.20;99.90;;;;;;6182492;23;20897;-90
2022/01/22 08:14:13;;;;;;;5.50;0.37;;;8.20;99.90;;;;;;6182569;23;20194;-90
2022/01/22 08:16:38;;;;;;;0.10;0.10;;;8.20;99.90;;;;;;6207947;23;20623;-90
2022/01/22 08:19:05;;;;;;;0.17;0.17;;;8.20;99.90;;;;;;6158277;23;20158;-91
2022/01/22 08:21:31;;;;;;;0.30;0.30;;;8.20;99.90;;;;;;6182786;23;20738;-90
2022/01/22 08:23:57;;;;;;;0.83;0.83;;;8.20;99.90;;;;;;6183542;23;20204;-90
2022/01/22 08:26:27;;;;;;;0.93;0.93;;;8.20;99.90;;;;;;6158580;23;20202;-91
2022/01/22 08:28:53;;;;;;;0.30;0.30;;;8.20;99.90;;;;;;6160091;23;20293;-89
2022/01/22 08:31:36;;;;;;;2.23;2.13;;;8.20;99.90;;;;;;6208458;23;20523;-89
2022/01/22 08:36:48;;;;;;;0.43;0.43;;;8.20;99.90;;;;;;6211232;23;20170;-90
2022/01/22 08:39:16;;;;;;;0.40;0.40;;;8.30;99.90;;;;;;6161361;23;20539;-89
2022/01/22 08:41:42;;;;;;;0.30;0.30;;;8.30;99.90;;;;;;6211143;23;20216;-90
2022/01/22 08:44:09;;;;;;;0.17;0.17;;;8.30;99.90;;;;;;6185450;23;20245;-90
2022/01/22 08:46:35;;;;;;;0.30;0.30;;;8.40;99.90;;;;;;6186143;23;20254;-90
2022/01/22 08:49:01;;;;;;;0.40;0.40;;;8.30;99.90;;;;;;6161151;23;20162;-90
2022/01/22 08:51:27;;;;;;;0.40;0.37;;;8.30;99.90;;;;;;6210349;23;20213;-91
2022/01/22 08:53:55;;;;;;;1.37;0.47;;;8.30;99.90;;;;;;6185196;23;20205;-90
2022/01/22 08:56:21;;;;;;;0.93;0.73;;;8.40;99.90;;;;;;6184877;23;20941;-90
2022/01/22 08:58:47;;;;;;;0.20;0.20;;;8.40;99.90;;;;;;6209908;23;20201;-91
2022/01/22 09:01:13;;;;;;;0.10;0.10;;;8.50;99.90;;;;;;6159386;23;20190;-91
2022/01/22 09:03:39;;;;;;;0.33;0.33;;;8.50;99.90;;;;;;6210037;23;20292;-90
2022/01/22 09:06:06;;;;;;;1.77;0.87;;;8.50;99.90;;;;;;6209955;23;20201;-90
2022/01/22 09:08:32;;;;;;;1.70;0.67;;;8.50;99.90;;;;;;6185313;23;20644;-90
2022/01/22 09:10:58;;;;;;;11.67;0.77;;;8.50;99.90;;;;;;6159760;23;20200;-90
2022/01/22 09:13:26;;;;;;;0.63;0.27;;;8.50;99.90;;;;;;6160272;23;20162;-91
2022/01/22 09:15:54;;;;;;;0.57;0.57;;;8.50;99.90;;;;;;6185592;23;20163;-90
2022/01/22 09:18:20;;;;;;;0.20;0.20;;;8.50;99.90;;;;;;6184664;23;20197;-90
2022/01/22 09:23:15;;;;;;;1.17;0.77;;;8.60;99.90;;;;;;6209632;23;20221;-91
2022/01/22 09:25:41;;;;;;;0.83;0.63;;;8.60;99.90;;;;;;6185280;23;20258;-91
2022/01/22 09:28:11;;;;;;;9.00;1.30;;;8.60;99.90;;;;;;6184840;23;20166;-90
2022/01/22 09:30:37;;;;;;;1.17;0.40;;;8.60;99.90;;;;;;6162618;23;20165;-92
2022/01/22 09:33:05;;;;;;;1.07;0.60;;;8.50;99.90;;;;;;6208765;23;20202;-90
2022/01/22 09:35:32;;;;;;;3.60;1.23;;;8.60;99.90;;;;;;6211580;23;20217;-92
2022/01/22 09:37:58;;;;;;;0.27;0.27;;;8.60;99.90;;;;;;6162617;23;20523;-91
2022/01/22 09:40:34;;;;;;;0.47;0.47;;;8.60;99.90;;;;;;6212967;23;20206;-92
2022/01/22 09:43:00;;;;;;;1.67;1.57;;;8.60;99.90;;;;;;6211915;23;20138;-90
2022/01/22 09:45:30;;;;;;;2.67;0.87;;;8.60;99.90;;;;;;6184598;23;20225;-93
2022/01/22 09:47:58;;;;;;;2.33;1.70;;;8.60;99.90;;;;;;6208426;23;20201;-91
2022/01/22 09:50:26;;;;;;;1.37;1.17;;;8.70;99.90;;;;;;6183686;23;20206;-92
2022/01/22 09:52:52;;;;;;;0.50;0.50;;;8.70;99.90;;;;;;6185197;23;20667;-91
2022/01/22 09:55:18;;;;;;;4.30;1.20;;;8.70;99.90;;;;;;6183958;23;20170;-91
2022/01/22 09:57:45;;;;;;;1.50;1.43;;;8.70;99.90;;;;;;6160652;23;20165;-92
2022/01/22 10:00:13;;;;;;;3.97;2.00;;;8.70;99.90;;;;;;6183337;23;20212;-93
2022/01/22 10:02:45;;;;;;;3.07;1.50;;;8.80;99.90;;;;;;6209055;23;20260;-92
2022/01/22 10:05:32;;;;;;;0.80;0.80;;;8.80;99.90;;;;;;6209238;23;20248;-92
2022/01/22 10:08:28;;;;;;;1.20;1.10;;;8.80;99.90;;;;;;6209631;23;20251;-92
2022/01/22 10:10:56;;;;;;;2.50;2.30;;;8.80;99.90;;;;;;6209767;23;20198;-92
2022/01/22 10:13:50;;;;;;;2.80;1.03;;;8.80;99.90;;;;;;6209288;23;20154;-91
2022/01/22 10:16:20;;;;;;;0.30;0.30;;;8.70;99.90;;;;;;6209263;23;20146;-93
2022/01/22 10:19:18;;;;;;;2.50;1.07;;;8.70;99.90;;;;;;6210114;23;20143;-93
2022/01/22 10:21:57;;;;;;;1.77;0.87;;;8.70;99.90;;;;;;6209238;23;20510;-91
2022/01/22 10:24:47;;;;;;;0.67;0.67;;;8.70;99.90;;;;;;6208597;23;20194;-93
2022/01/22 10:30:14;;;;;;;0.60;0.60;;;8.70;99.90;;;;;;6210155;23;20284;-92
2022/01/22 10:32:48;;;;;;;2.00;0.77;;;8.70;99.90;;;;;;6208704;23;20205;-94
2022/01/22 10:35:23;;;;;;;1.70;0.97;;;8.70;99.90;;;;;;6209314;23;20198;-89
2022/01/22 10:37:57;;;;;;;0.80;0.53;;;8.70;99.90;;;;;;6209091;23;20209;-93
2022/01/22 10:40:25;;;;;;;0.53;0.53;;;8.70;99.90;;;;;;6210582;23;20189;-93
2022/01/22 10:42:52;;;;;;;3.10;0.53;;;8.70;99.90;;;;;;6210123;23;20178;-94
2022/01/22 10:45:29;;;;;;;0.20;0.20;;;8.70;99.90;;;;;;6208700;23;20228;-92
2022/01/22 10:48:16;;;;;;;0.10;0.10;;;8.70;99.90;;;;;;6209271;23;20284;-93
2022/01/22 10:50:42;;;;;;;0.50;0.50;;;8.70;99.90;;;;;;6208644;23;20221;-94
2022/01/22 10:53:08;;;;;;;1.17;0.97;;;8.70;99.90;;;;;;6159428;23;20233;-93
2022/01/22 10:56:01;;;;;;;2.10;0.73;;;8.80;99.90;;;;;;6209536;23;20248;-93
2022/01/22 10:58:27;;;;;;;0.40;0.30;;;8.80;99.90;;;;;;6183730;23;20150;-94
2022/01/22 11:01:05;;;;;;;1.03;0.40;;;8.90;99.90;;;;;;6160766;23;20185;-94
2022/01/22 11:03:32;;;;;;;1.40;0.30;;;8.90;99.90;;;;;;6209698;23;20201;-94
2022/01/22 11:06:04;;;;;;;0.53;0.53;;;8.80;99.90;;;;;;6209097;23;20657;-92
2022/01/22 11:08:30;;;;;;;0.77;0.77;;;8.90;99.90;;;;;;6185965;23;20198;-92
2022/01/22 11:10:56;;;;;;;0.20;0.20;;;8.90;99.90;;;;;;6160775;23;20248;-91
2022/01/22 11:13:22;;;;;;;0.53;0.53;;;8.90;99.90;;;;;;6184721;23;20165;-94
2022/01/22 11:15:50;;;;;;;0.20;0.20;;;8.90;99.90;;;;;;6185017;23;20181;-91
2022/01/22 11:18:21;;;;;;;1.13;1.03;;;8.90;99.90;;;;;;6184713;23;20598;-94
2022/01/22 11:20:47;;;;;;;0.93;0.93;;;8.90;99.90;;;;;;6209874;23;20713;-90
2022/01/22 11:23:17;;;;;;;2.13;0.63;;;8.90;99.90;;;;;;6209173;23;20202;-95
2022/01/22 11:25:43;;;;;;;2.67;1.23;;;8.80;99.90;;;;;;6184310;23;20219;-93
2022/01/22 11:28:10;;;;;;;0.10;0.10;;;8.80;99.90;;;;;;6158924;23;20265;-93
2022/01/22 11:30:36;;;;;;;3.50;0.93;;;8.80;99.90;;;;;;6184457;23;20200;-90
2022/01/22 11:33:09;;;;;;;0.63;0.20;;;8.80;99.90;;;;;;6158665;23;20202;-91
2022/01/22 11:35:37;;;;;;;0.47;0.37;;;8.80;99.90;;;;;;6208461;23;20248;-91
2022/01/22 11:38:10;;;;;;;0.60;0.60;;;8.80;99.90;;;;;;6208248;23;20205;-91
2022/01/22 11:40:36;;;;;;;0.30;0.30;;;8.80;99.90;;;;;;6183519;23;20202;-90
2022/01/22 11:43:10;;;;;;;0.73;0.30;;;8.80;99.90;;;;;;6183774;23;20166;-90
2022/01/22 11:45:50;;;;;;;12.00;1.53;;;8.80;99.90;;;;;;6208934;23;20205;-90
2022/01/22 11:48:26;;;;;;;2.67;0.60;;;8.80;99.90;;;;;;6207457;23;20205;-89
2022/01/22 11:51:15;;;;;;;0.20;0.20;;;8.90;99.90;;;;;;6207369;23;20211;-90
2022/01/22 11:53:53;;;;;;;0.10;0.10;;;8.90;99.90;;;;;;6187248;23;20208;-91
2022/01/22 11:56:26;;;;;;;0.10;0.10;;;8.90;99.90;;;;;;6182571;23;20252;-91
2022/01/22 11:58:59;;;;;;;0.47;0.47;;;8.90;99.90;;;;;;6161125;23;20198;-90
2022/01/22 12:01:50;;;;;;;0.17;0.17;;;8.90;99.90;;;;;;6208414;23;20685;-91
2022/01/22 12:04:20;;;;;;;0.10;0.10;;;8.80;99.90;;;;;;6208414;23;20165;-91
2022/01/22 12:07:03;;;;;;;0.10;0.10;;;8.70;99.90;;;;;;6210822;23;20582;-91
2022/01/22 12:09:39;;;;;;;0.50;0.50;;;8.70;99.90;;;;;;6209620;23;20201;-91
2022/01/22 12:15:14;;;;;;;4.43;0.80;;;8.60;99.90;;;;;;6210850;23;20558;-91
2022/01/22 12:17:59;;;;;;;1.07;1.07;;;8.60;99.90;;;;;;6209776;23;20190;-90
2022/01/22 12:23:02;;;;;;;0.20;0.20;;;8.60;99.90;;;;;;6211846;23;20194;-91
2022/01/22 12:25:28;;;;;;;0.20;0.20;;;8.60;99.90;;;;;;6210770;23;20681;-91
2022/01/22 12:27:55;;;;;;;0.50;0.30;;;8.60;99.90;;;;;;6211412;23;20182;-91
2022/01/22 12:30:44;;;;;;;0.57;0.57;;;8.70;99.90;;;;;;6185193;23;20535;-92
2022/01/22 12:33:30;;;;;;;0.10;0.10;;;8.70;99.90;;;;;;6210198;23;20202;-89
2022/01/22 12:36:00;;;;;;;0.20;0.20;;;8.60;99.90;;;;;;6184643;23;20193;-91
2022/01/22 12:41:32;;;;;;;0.10;0.10;;;8.60;99.90;;;;;;6211320;23;20655;-91
2022/01/22 12:44:29;;;;;;;0.10;0.10;;;8.70;99.90;;;;;;6210327;23;20740;-89
2022/01/22 12:47:14;;;;;;;3.57;0.27;;;8.70;99.90;;;;;;6198139;23;20213;-91
2022/01/22 12:50:04;;;;;;;0.20;0.20;;;8.80;99.90;;;;;;6199346;23;20204;-91
2022/01/22 12:52:30;;;;;;;0.70;0.57;;;8.70;99.90;;;;;;6210031;23;20208;-89
2022/01/22 12:55:00;;;;;;;0.20;0.20;;;8.80;99.90;;;;;;6185258;23;20166;-90
2022/01/22 12:57:28;;;;;;;0.23;0.23;;;8.80;99.90;;;;;;6209659;23;20197;-91
2022/01/22 13:00:14;;;;;;;1.37;1.00;;;8.70;99.90;;;;;;6211294;23;20209;-90
2022/01/22 13:02:59;;;;;;;2.13;0.30;;;8.70;99.90;;;;;;6185910;23;20217;-91
2022/01/22 13:05:26;;;;;;;2.30;0.47;;;8.70;99.90;;;;;;6206339;23;20197;-89
2022/01/22 13:07:56;;;;;;;0.57;0.30;;;8.70;99.90;;;;;;6209425;23;20197;-90
2022/01/22 13:10:27;;;;;;;0.70;0.70;;;8.70;99.90;;;;;;6209377;23;20196;-89
2022/01/22 13:12:55;;;;;;;0.20;0.20;;;8.70;99.90;;;;;;6186385;23;20149;-90
2022/01/22 13:15:21;;;;;;;0.30;0.30;;;8.70;99.90;;;;;;6184200;23;20202;-90
2022/01/22 13:17:57;;;;;;;1.37;1.20;;;8.70;99.90;;;;;;6208460;23;20205;-91
2022/01/22 13:20:25;;;;;;;5.00;0.37;;;8.70;99.90;;;;;;6209254;23;20201;-91
2022/01/22 13:22:52;;;;;;;1.33;0.33;;;8.70;99.90;;;;;;6209183;23;20197;-91
2022/01/22 13:25:19;;;;;;;0.17;0.17;;;8.70;99.90;;;;;;6159340;23;20255;-91
2022/01/22 13:28:04;;;;;;;6.10;0.60;;;8.60;99.90;;;;;;6185202;23;20245;-91
2022/01/22 13:30:42;;;;;;;0.43;0.43;;;8.60;99.90;;;;;;6209364;23;20204;-90
2022/01/22 13:33:20;;;;;;;0.40;0.30;;;8.60;99.90;;;;;;6209050;23;20220;-90
2022/01/22 13:36:08;;;;;;;0.20;0.20;;;8.60;99.90;;;;;;6208644;23;20201;-91
2022/01/22 13:49:40;;;;;;;0.20;0.20;;;8.50;99.90;;;;;;6211092;23;20190;-91
2022/01/22 13:52:12;;;;;;;0.27;0.27;;;8.50;99.90;;;;;;6209221;23;20281;-91
2022/01/22 13:54:47;;;;;;;0.17;0.17;;;8.50;99.90;;;;;;6209851;23;20182;-90
2022/01/22 13:57:15;;;;;;;1.90;0.30;;;8.50;99.90;;;;;;6209047;23;20643;-91
2022/01/22 13:59:47;;;;;;;0.30;0.30;;;8.40;99.90;;;;;;6184247;23;20206;-92
2022/01/22 14:05:07;;;;;;;0.40;0.40;;;8.40;99.90;;;;;;6210545;23;20907;-91
2022/01/22 14:07:43;;;;;;;0.20;0.20;;;8.30;99.90;;;;;;6184344;23;20197;-91
2022/01/22 14:10:11;;;;;;;0.30;0.30;;;8.30;99.90;;;;;;6209019;23;20589;-91
2022/01/22 14:12:59;;;;;;;0.20;0.20;;;8.20;99.90;;;;;;6209708;23;20162;-92
2022/01/22 14:15:41;;;;;;;0.40;0.40;;;8.20;99.90;;;;;;6209985;23;20206;-92
2022/01/22 14:18:13;;;;;;;0.20;0.20;;;8.20;99.90;;;;;;6208954;23;20542;-92
2022/01/22 14:20:52;;;;;;;0.37;0.17;;;8.10;99.90;;;;;;6208904;23;20765;-91
2022/01/22 14:23:24;;;;;;;0.20;0.20;;;8.20;99.90;;;;;;6208685;23;20205;-89
2022/01/22 14:26:10;;;;;;;0.20;0.20;;;8.20;99.90;;;;;;6208665;23;21122;-89
2022/01/22 14:28:57;;;;;;;1.53;0.27;;;8.30;99.90;;;;;;6207050;23;20193;-92
2022/01/22 14:31:25;;;;;;;7.73;0.37;;;8.30;99.90;;;;;;6209222;23;20146;-91
2022/01/22 14:33:52;;;;;;;0.53;0.37;;;8.40;99.90;;;;;;6206996;23;20194;-92
2022/01/22 14:36:21;;;;;;;0.20;0.20;;;8.40;99.90;;;;;;6182004;23;20268;-91
2022/01/22 14:38:56;;;;;;;0.40;0.40;;;8.30;99.90;;;;;;6206053;23;20297;-90
2022/01/22 14:44:27;;;;;;;0.97;0.83;;;8.30;99.90;;;;;;6164017;23;20550;-91
2022/01/22 14:47:08;;;;;;;0.20;0.20;;;8.30;99.90;;;;;;6206069;23;20210;-92
2022/01/22 14:49:42;;;;;;;0.10;0.10;;;8.30;99.90;;;;;;6206625;23;20189;-92
2022/01/22 14:52:09;;;;;;;0.73;0.63;;;8.20;99.90;;;;;;6206569;23;20252;-91
2022/01/22 14:54:39;;;;;;;0.77;0.60;;;8.20;99.90;;;;;;6207516;23;20162;-91
2022/01/22 14:57:07;;;;;;;1.13;0.80;;;8.20;99.90;;;;;;6207664;23;20205;-92
2022/01/22 14:59:34;;;;;;;0.23;0.23;;;8.10;99.90;;;;;;6209335;23;20204;-92
2022/01/22 15:02:01;;;;;;;0.33;0.33;;;8.10;99.90;;;;;;6209746;23;20209;-92
2022/01/22 15:04:28;;;;;;;0.40;0.40;;;8.10;99.90;;;;;;6183078;23;20155;-91
2022/01/22 15:06:56;;;;;;;0.50;0.30;;;8.10;99.90;;;;;;6209150;23;20591;-91
2022/01/22 15:09:23;;;;;;;6.77;0.50;;;8.10;99.90;;;;;;6183201;23;20194;-90
2022/01/22 15:11:49;;;;;;;2.30;1.13;;;8.10;99.90;;;;;;6208867;23;20201;-92
2022/01/22 15:14:15;;;;;;;0.87;0.33;;;8.10;99.90;;;;;;6183991;23;20508;-91